createdAt,value
2022-10-13T00:00:46.832Z,50.37
2022-10-13T00:03:14.391Z,36.67
2022-10-13T00:05:43.397Z,46.30
2022-10-13T00:08:11.110Z,44.17
2022-10-13T00:10:42.560Z,33.20
2022-10-13T00:13:11.813Z,30.00
2022-10-13T00:15:43.936Z,36.10
2022-10-13T00:18:10.953Z,30.33
2022-10-13T00:20:42.597Z,38.97
2022-10-13T00:23:09.764Z,27.67
2022-10-13T00:25:44.381Z,30.43
2022-10-13T00:28:12.011Z,33.90
2022-10-13T00:30:39.584Z,39.97
2022-10-13T00:33:06.815Z,27.70
2022-10-13T00:35:34.139Z,30.13
2022-10-13T00:38:00.796Z,32.97
2022-10-13T00:40:31.023Z,30.63
2022-10-13T00:42:57.714Z,23.73
2022-10-13T00:45:29.556Z,33.77
2022-10-13T00:48:01.643Z,25.00
2022-10-13T00:50:33.695Z,32.60
2022-10-13T00:53:02.918Z,28.63
2022-10-13T00:55:33.962Z,22.47
2022-10-13T00:58:05.651Z,30.17
2022-10-13T01:00:34.034Z,22.83
2022-10-13T01:03:01.892Z,37.30
2022-10-13T01:05:29.570Z,19.77
2022-10-13T01:07:57.460Z,20.13
2022-10-13T01:10:55.202Z,15.77
2022-10-13T01:13:39.316Z,19.63
2022-10-13T01:16:29.365Z,14.63
2022-10-13T01:19:12.780Z,21.93
2022-10-13T01:22:16.375Z,16.30
2022-10-13T01:24:48.866Z,15.67
2022-10-13T01:27:49.887Z,17.27
2022-10-13T01:30:21.257Z,16.17
2022-10-13T01:33:05.737Z,23.60
2022-10-13T01:35:56.834Z,20.97
2022-10-13T01:38:43.718Z,15.50
2022-10-13T01:41:25.454Z,17.03
2022-10-13T01:44:02.632Z,13.73
2022-10-13T01:46:35.365Z,17.80
2022-10-13T01:49:06.972Z,16.97
2022-10-13T01:51:35.174Z,13.03
2022-10-13T01:54:02.329Z,15.00
2022-10-13T01:56:28.967Z,16.73
2022-10-13T01:58:57.853Z,15.97
2022-10-13T02:01:30.243Z,21.63
2022-10-13T02:04:17.701Z,16.07
2022-10-13T02:07:40.550Z,17.27
2022-10-13T02:10:19.895Z,12.87
2022-10-13T02:12:59.292Z,16.20
2022-10-13T02:15:41.240Z,21.80
2022-10-13T02:18:10.528Z,22.47
2022-10-13T02:20:37.440Z,14.80
2022-10-13T02:23:12.336Z,15.03
2022-10-13T02:25:40.400Z,26.07
2022-10-13T02:28:07.457Z,23.13
2022-10-13T02:30:42.758Z,19.70
2022-10-13T02:33:09.946Z,16.33
2022-10-13T02:35:37.794Z,20.20
2022-10-13T02:38:04.626Z,26.77
2022-10-13T02:40:31.672Z,24.63
2022-10-13T02:42:58.360Z,38.10
2022-10-13T02:45:25.103Z,25.00
2022-10-13T02:47:54.832Z,30.83
2022-10-13T02:50:21.608Z,39.13
2022-10-13T02:52:50.649Z,23.63
2022-10-13T02:55:17.710Z,17.53
2022-10-13T02:57:45.715Z,24.00
2022-10-13T03:00:13.416Z,30.87
2022-10-13T03:02:40.238Z,31.17
2022-10-13T03:05:07.474Z,22.10
2022-10-13T03:07:34.232Z,20.13
2022-10-13T03:10:01.597Z,22.90
2022-10-13T03:12:28.221Z,23.43
2022-10-13T03:14:54.863Z,15.43
2022-10-13T03:17:21.489Z,25.23
2022-10-13T03:19:48.274Z,16.43
2022-10-13T03:22:18.254Z,16.80
2022-10-13T03:24:45.501Z,14.10
2022-10-13T03:27:12.230Z,16.67
2022-10-13T03:29:39.054Z,15.57
2022-10-13T03:32:05.857Z,16.23
2022-10-13T03:34:32.722Z,16.90
2022-10-13T03:36:59.426Z,18.73
2022-10-13T03:39:26.290Z,16.77
2022-10-13T03:41:52.936Z,17.60
2022-10-13T03:44:19.827Z,19.20
2022-10-13T03:46:46.529Z,22.27
2022-10-13T03:49:13.226Z,15.17
2022-10-13T03:51:40.292Z,15.70
2022-10-13T03:54:06.973Z,16.20
2022-10-13T03:56:33.617Z,16.33
2022-10-13T03:59:01.693Z,12.97
2022-10-13T04:01:30.164Z,12.33
2022-10-13T04:03:58.236Z,17.13
2022-10-13T04:06:26.127Z,12.43
2022-10-13T04:08:52.894Z,11.20
2022-10-13T04:11:20.734Z,11.43
2022-10-13T04:13:51.736Z,11.70
2022-10-13T04:16:23.850Z,11.60
2022-10-13T04:18:56.647Z,10.70
2022-10-13T04:21:24.516Z,8.87
2022-10-13T04:23:53.873Z,10.93
2022-10-13T04:26:22.962Z,12.90
2022-10-13T04:28:51.783Z,9.80
2022-10-13T04:31:19.435Z,10.50
2022-10-13T04:33:46.108Z,15.37
2022-10-13T04:36:14.216Z,12.20
2022-10-13T04:38:42.148Z,10.77
2022-10-13T04:41:10.121Z,9.60
2022-10-13T04:43:37.086Z,9.53
2022-10-13T04:46:14.544Z,11.07
2022-10-13T04:48:41.625Z,8.93
2022-10-13T04:51:11.634Z,7.50
2022-10-13T04:53:38.706Z,8.07
2022-10-13T04:56:14.547Z,6.70
2022-10-13T04:58:42.293Z,8.57
2022-10-13T05:01:21.391Z,8.30
2022-10-13T05:03:52.243Z,6.63
2022-10-13T05:06:22.397Z,8.47
2022-10-13T05:08:50.331Z,7.63
2022-10-13T05:11:18.342Z,8.63
2022-10-13T05:13:46.576Z,8.90
2022-10-13T05:16:15.254Z,7.30
2022-10-13T05:18:42.641Z,8.17
2022-10-13T05:21:10.944Z,10.87
2022-10-13T05:23:38.823Z,12.80
2022-10-13T05:26:07.412Z,9.60
2022-10-13T05:28:34.510Z,11.70
2022-10-13T05:31:19.656Z,17.73
2022-10-13T05:33:47.601Z,15.97
2022-10-13T05:36:25.812Z,13.50
2022-10-13T05:38:54.506Z,9.80
2022-10-13T05:41:22.380Z,9.27
2022-10-13T05:43:49.364Z,9.97
2022-10-13T05:46:16.051Z,10.23
2022-10-13T05:48:42.787Z,10.97
2022-10-13T05:51:28.117Z,11.33
2022-10-13T05:54:20.152Z,14.50
2022-10-13T05:56:52.724Z,12.30
2022-10-13T05:59:26.076Z,14.97
2022-10-13T06:01:54.228Z,17.87
2022-10-13T06:04:30.506Z,14.87
2022-10-13T06:06:57.310Z,15.20
2022-10-13T06:09:24.069Z,13.90
2022-10-13T06:11:50.845Z,10.87
2022-10-13T06:14:17.532Z,13.97
2022-10-13T06:16:44.179Z,14.50
2022-10-13T06:19:10.854Z,11.47
2022-10-13T06:21:37.472Z,11.80
2022-10-13T06:24:04.382Z,10.40
2022-10-13T06:26:31.031Z,10.63
2022-10-13T06:28:59.771Z,12.43
2022-10-13T06:31:27.453Z,12.83
2022-10-13T06:33:54.224Z,13.50
2022-10-13T06:36:20.925Z,10.30
2022-10-13T06:38:47.598Z,11.60
2022-10-13T06:41:16.701Z,11.37
2022-10-13T06:43:43.460Z,9.40
2022-10-13T06:46:11.786Z,8.30
2022-10-13T06:48:38.926Z,8.47
2022-10-13T06:51:08.079Z,9.30
2022-10-13T06:53:35.580Z,15.13
2022-10-13T06:56:04.160Z,9.40
2022-10-13T06:58:30.957Z,11.07
2022-10-13T07:00:57.966Z,9.13
2022-10-13T07:03:25.217Z,9.77
2022-10-13T07:05:51.991Z,11.13
2022-10-13T07:08:19.054Z,10.17
2022-10-13T07:10:45.725Z,11.20
2022-10-13T07:13:12.406Z,7.83
2022-10-13T07:15:39.912Z,9.10
2022-10-13T07:18:07.386Z,8.10
2022-10-13T07:20:34.655Z,11.67
2022-10-13T07:23:01.306Z,8.07
2022-10-13T07:25:28.272Z,11.77
2022-10-13T07:27:54.958Z,10.67
2022-10-13T07:30:22.176Z,8.43
2022-10-13T07:32:49.116Z,10.60
2022-10-13T07:35:15.968Z,7.50
2022-10-13T07:37:42.600Z,9.17
2022-10-13T07:40:09.872Z,11.50
2022-10-13T07:42:36.573Z,15.33
2022-10-13T07:45:03.645Z,10.17
2022-10-13T07:47:31.203Z,9.87
2022-10-13T07:49:57.838Z,13.03
2022-10-13T07:52:24.521Z,10.53
2022-10-13T07:54:51.433Z,11.23
2022-10-13T07:57:18.488Z,12.20
2022-10-13T07:59:45.351Z,16.37
2022-10-13T08:02:13.363Z,10.73
2022-10-13T08:04:40.032Z,11.57
2022-10-13T08:07:07.045Z,11.07
2022-10-13T08:09:34.394Z,13.13
2022-10-13T08:12:02.012Z,12.20
2022-10-13T08:14:30.168Z,16.70
2022-10-13T08:16:57.832Z,13.07
2022-10-13T08:19:26.403Z,10.93
2022-10-13T08:21:58.054Z,11.37
2022-10-13T08:24:25.390Z,13.33
2022-10-13T08:26:52.072Z,13.47
2022-10-13T08:29:23.515Z,13.77
2022-10-13T08:31:53.120Z,13.73
2022-10-13T08:34:21.065Z,15.43
2022-10-13T08:36:47.785Z,16.03
2022-10-13T08:39:14.454Z,15.80
2022-10-13T08:41:45.895Z,20.13
2022-10-13T08:45:06.265Z,14.23
2022-10-13T08:47:23.808Z,12.40
2022-10-13T08:49:50.675Z,12.87
2022-10-13T08:52:21.696Z,13.20
2022-10-13T08:54:50.202Z,18.30
2022-10-13T08:57:18.307Z,14.83
2022-10-13T08:59:45.828Z,16.77
2022-10-13T09:02:31.604Z,12.93
2022-10-13T09:05:02.813Z,13.87
2022-10-13T09:07:35.002Z,15.17
2022-10-13T09:10:01.717Z,13.13
2022-10-13T09:12:28.372Z,16.90
2022-10-13T09:15:09.615Z,12.27
2022-10-13T09:17:38.589Z,14.13
2022-10-13T09:20:27.525Z,14.90
2022-10-13T09:23:06.365Z,13.00
2022-10-13T09:25:42.200Z,20.03
2022-10-13T09:28:35.985Z,17.30
2022-10-13T09:31:11.625Z,16.10
2022-10-13T09:33:41.473Z,16.23
2022-10-13T09:36:13.880Z,16.57
2022-10-13T09:39:02.094Z,14.70
2022-10-13T09:41:28.745Z,16.23
2022-10-13T09:43:55.353Z,14.27
2022-10-13T09:46:36.117Z,15.27
2022-10-13T09:49:07.223Z,13.70
2022-10-13T09:51:38.754Z,13.63
2022-10-13T09:54:51.171Z,21.03
2022-10-13T09:57:40.413Z,13.57
2022-10-13T10:00:25.396Z,13.63
2022-10-13T10:02:57.945Z,14.97
2022-10-13T10:05:43.010Z,14.67
2022-10-13T10:09:01.516Z,16.23
2022-10-13T10:11:46.533Z,13.47
2022-10-13T10:14:26.774Z,17.27
2022-10-13T10:17:17.329Z,16.43
2022-10-13T10:19:53.537Z,17.57
2022-10-13T10:22:53.780Z,15.60
2022-10-13T10:25:46.786Z,11.23
2022-10-13T10:28:52.957Z,15.00
2022-10-13T10:31:57.146Z,13.40
2022-10-13T10:34:27.113Z,16.63
2022-10-13T10:37:08.625Z,13.37
2022-10-13T10:39:54.189Z,10.80
2022-10-13T10:42:32.947Z,13.10
2022-10-13T10:45:03.574Z,14.77
2022-10-13T10:47:39.640Z,11.63
2022-10-13T10:50:08.594Z,15.10
2022-10-13T10:53:02.810Z,12.90
2022-10-13T10:55:35.030Z,12.53
2022-10-13T10:58:22.325Z,13.07
2022-10-13T11:01:13.483Z,15.40
2022-10-13T11:04:04.448Z,13.57
2022-10-13T11:06:36.437Z,14.33
2022-10-13T11:09:05.775Z,12.97
2022-10-13T11:11:37.685Z,10.73
2022-10-13T11:14:09.700Z,14.23
2022-10-13T11:16:59.150Z,12.40
2022-10-13T11:19:39.722Z,14.60
2022-10-13T11:22:06.369Z,17.17
2022-10-13T11:24:38.630Z,13.27
2022-10-13T11:27:11.322Z,15.53
2022-10-13T11:29:44.195Z,12.33
2022-10-13T11:32:46.484Z,13.63
2022-10-13T11:35:25.526Z,23.17
2022-10-13T11:38:07.288Z,40.20
2022-10-13T11:40:57.634Z,29.73
2022-10-13T11:44:05.364Z,27.77
2022-10-13T11:46:51.242Z,22.77
2022-10-13T11:49:31.506Z,16.63
2022-10-13T11:51:58.125Z,13.53
2022-10-13T11:54:41.441Z,22.20
2022-10-13T11:57:27.758Z,18.60
2022-10-13T11:59:56.767Z,24.57
2022-10-13T12:02:29.109Z,18.77
2022-10-13T12:05:18.806Z,16.67
2022-10-13T12:07:47.493Z,16.47
2022-10-13T12:10:36.252Z,17.20
2022-10-13T12:13:06.870Z,17.77
2022-10-13T12:15:43.236Z,17.70
2022-10-13T12:18:27.503Z,26.87
2022-10-13T12:21:09.238Z,24.93
2022-10-13T12:23:36.243Z,24.57
2022-10-13T12:26:03.571Z,25.47
2022-10-13T12:28:47.155Z,21.40
2022-10-13T12:31:21.187Z,19.33
2022-10-13T12:34:01.863Z,13.50
2022-10-13T12:36:34.480Z,14.43
2022-10-13T12:39:07.668Z,15.27
2022-10-13T12:41:43.444Z,20.00
2022-10-13T12:44:17.890Z,14.83
2022-10-13T12:46:47.614Z,16.77
2022-10-13T12:49:24.007Z,12.13
2022-10-13T12:51:58.425Z,14.47
2022-10-13T12:54:29.346Z,12.23
2022-10-13T12:57:03.806Z,16.13
2022-10-13T12:59:31.610Z,14.10
2022-10-13T13:02:01.297Z,11.60
2022-10-13T13:04:41.255Z,23.40
2022-10-13T13:07:35.520Z,12.47
2022-10-13T13:10:19.461Z,13.33
2022-10-13T13:12:48.905Z,25.87
2022-10-13T13:15:35.277Z,18.07
2022-10-13T13:18:24.117Z,13.37
2022-10-13T13:20:50.820Z,14.90
2022-10-13T13:23:19.219Z,16.43
2022-10-13T13:25:47.001Z,15.53
2022-10-13T13:28:15.892Z,12.67
2022-10-13T13:30:42.842Z,15.93
2022-10-13T13:35:41.702Z,19.13
2022-10-13T13:38:10.067Z,25.97
2022-10-13T13:40:36.738Z,19.37
2022-10-13T13:43:03.367Z,15.40
2022-10-13T13:45:31.023Z,19.67
2022-10-13T13:48:00.664Z,19.90
2022-10-13T13:50:37.188Z,29.30
2022-10-13T13:53:04.960Z,20.97
2022-10-13T13:55:31.884Z,14.23
2022-10-13T13:57:59.050Z,13.67
2022-10-13T14:00:25.833Z,13.63
2022-10-13T14:02:56.970Z,15.20
2022-10-13T14:05:23.678Z,15.17
2022-10-13T14:07:53.413Z,20.37
2022-10-13T14:10:20.047Z,15.17
2022-10-13T14:12:46.724Z,13.27
2022-10-13T14:15:13.424Z,16.07
2022-10-13T14:17:40.056Z,15.07
2022-10-13T14:20:07.109Z,16.17
2022-10-13T14:22:38.988Z,19.83
2022-10-13T14:25:07.240Z,14.00
2022-10-13T14:27:35.022Z,15.03
2022-10-13T14:30:02.446Z,13.10
2022-10-13T14:32:29.220Z,16.40
2022-10-13T14:34:55.878Z,13.23
2022-10-13T14:37:23.556Z,16.87
2022-10-13T14:39:51.716Z,14.53
2022-10-13T14:42:18.502Z,15.23
2022-10-13T14:44:45.203Z,13.93
2022-10-13T14:47:12.085Z,16.67
2022-10-13T14:49:38.764Z,16.63
2022-10-13T14:52:05.592Z,16.27
2022-10-13T14:54:32.455Z,19.17
2022-10-13T14:57:01.071Z,19.53
2022-10-13T14:59:27.795Z,29.97
2022-10-13T15:01:54.433Z,48.47
2022-10-13T15:04:21.066Z,25.00
2022-10-13T15:06:47.700Z,18.67
2022-10-13T15:09:14.374Z,18.63
2022-10-13T15:11:41.111Z,15.70
2022-10-13T15:14:09.848Z,15.47
2022-10-13T15:16:37.776Z,21.33
2022-10-13T15:19:04.723Z,18.00
2022-10-13T15:21:31.424Z,18.80
2022-10-13T15:23:58.096Z,31.00
2022-10-13T15:26:24.789Z,21.73
2022-10-13T15:28:53.135Z,18.70
2022-10-13T15:31:21.905Z,20.97
2022-10-13T15:33:51.765Z,28.97
2022-10-13T15:36:24.165Z,48.57
2022-10-13T15:38:51.581Z,44.90
2022-10-13T15:41:18.765Z,85.33
2022-10-13T15:43:45.449Z,28.77
2022-10-13T15:46:21.025Z,57.50
2022-10-13T15:48:49.474Z,17.90
2022-10-13T15:51:19.442Z,17.80
2022-10-13T15:53:47.817Z,16.98
2022-10-13T15:56:14.952Z,16.57
2022-10-13T15:58:41.694Z,14.33
2022-10-13T16:01:12.991Z,17.70
2022-10-13T16:03:40.696Z,23.10
2022-10-13T16:06:10.013Z,18.50
2022-10-13T16:08:40.998Z,21.20
2022-10-13T16:11:09.869Z,20.10
2022-10-13T16:13:36.796Z,19.13
2022-10-13T16:16:04.151Z,18.80
2022-10-13T16:18:33.080Z,19.20
2022-10-13T16:21:00.368Z,18.80
2022-10-13T16:23:27.582Z,18.43
2022-10-13T16:25:54.264Z,25.50
2022-10-13T16:28:21.980Z,25.23
2022-10-13T16:30:48.654Z,29.67
2022-10-13T16:33:15.360Z,29.63
2022-10-13T16:35:41.999Z,24.77
2022-10-13T16:38:09.107Z,24.53
2022-10-13T16:40:38.894Z,19.13
2022-10-13T16:43:08.519Z,24.50
2022-10-13T16:45:48.252Z,23.43
2022-10-13T16:48:23.506Z,20.17
2022-10-13T16:50:50.324Z,25.10
2022-10-13T16:53:19.598Z,23.10
2022-10-13T16:55:46.539Z,20.83
2022-10-13T16:58:14.899Z,18.77
2022-10-13T17:00:41.914Z,18.53
2022-10-13T17:03:10.013Z,18.33
2022-10-13T17:05:36.732Z,19.30
2022-10-13T17:08:03.688Z,20.53
2022-10-13T17:10:30.325Z,18.93
2022-10-13T17:13:01.277Z,23.10
2022-10-13T17:15:27.912Z,19.13
2022-10-13T17:17:54.532Z,21.40
2022-10-13T17:20:21.225Z,22.17
2022-10-13T17:22:50.713Z,21.47
2022-10-13T17:25:17.772Z,18.53
2022-10-13T17:27:44.440Z,22.17
2022-10-13T17:30:11.528Z,22.03
2022-10-13T17:32:38.898Z,20.40
2022-10-13T17:35:06.452Z,21.23
2022-10-13T17:37:33.172Z,21.20
2022-10-13T17:39:59.889Z,21.53
2022-10-13T17:42:28.315Z,21.57
2022-10-13T17:44:54.924Z,25.40
2022-10-13T17:47:21.871Z,19.10
2022-10-13T17:49:48.816Z,25.80
2022-10-13T17:52:15.561Z,35.93
2022-10-13T17:54:42.253Z,29.67
2022-10-13T17:57:08.906Z,30.13
2022-10-13T17:59:35.514Z,29.20
2022-10-13T18:02:02.233Z,25.03
2022-10-13T18:04:29.777Z,29.80
2022-10-13T18:06:56.439Z,33.07
2022-10-13T18:09:24.426Z,32.00
2022-10-13T18:11:53.325Z,34.47
2022-10-13T18:14:21.789Z,29.33
2022-10-13T18:16:49.724Z,27.33
2022-10-13T18:19:16.681Z,25.63
2022-10-13T18:21:43.377Z,21.53
2022-10-13T18:24:11.468Z,23.15
2022-10-13T18:26:38.580Z,22.10
2022-10-13T18:29:07.161Z,35.57
2022-10-13T18:31:36.212Z,22.53
2022-10-13T18:34:06.360Z,21.33
2022-10-13T18:36:32.980Z,22.33
2022-10-13T18:39:07.326Z,19.97
2022-10-13T18:41:36.362Z,18.17
2022-10-13T18:44:04.159Z,21.43
2022-10-13T18:46:35.520Z,23.47
2022-10-13T18:49:03.509Z,20.33
2022-10-13T18:51:35.604Z,19.97
2022-10-13T18:54:03.440Z,19.90
2022-10-13T18:56:31.448Z,19.90
2022-10-13T18:59:01.418Z,18.97
2022-10-13T19:01:31.098Z,22.30
2022-10-13T19:03:58.162Z,23.03
2022-10-13T19:06:26.828Z,22.40
2022-10-13T19:08:58.422Z,22.27
2022-10-13T19:11:25.173Z,24.33
2022-10-13T19:13:52.361Z,24.23
2022-10-13T19:16:21.616Z,20.80
2022-10-13T19:18:49.177Z,19.67
2022-10-13T19:21:16.633Z,22.47
2022-10-13T19:23:43.685Z,20.33
2022-10-13T19:26:30.597Z,23.17
2022-10-13T19:29:04.072Z,21.17
2022-10-13T19:31:32.573Z,21.00
2022-10-13T19:34:01.273Z,21.20
2022-10-13T19:36:34.415Z,18.53
2022-10-13T19:39:12.568Z,23.10
2022-10-13T19:41:39.236Z,18.00
2022-10-13T19:44:06.006Z,18.93
2022-10-13T19:46:43.011Z,16.93
2022-10-13T19:49:11.644Z,17.83
2022-10-13T19:51:44.196Z,19.40
2022-10-13T19:54:11.751Z,18.93
2022-10-13T19:56:44.654Z,17.57
2022-10-13T19:59:11.277Z,20.40
2022-10-13T20:01:40.811Z,16.37
2022-10-13T20:04:12.338Z,19.63
2022-10-13T20:06:40.070Z,18.20
2022-10-13T20:09:07.089Z,21.70
2022-10-13T20:11:33.805Z,26.60
2022-10-13T20:14:00.473Z,23.40
2022-10-13T20:16:27.244Z,20.40
2022-10-13T20:18:57.073Z,19.13
2022-10-13T20:21:24.961Z,17.40
2022-10-13T20:23:52.005Z,17.10
2022-10-13T20:26:19.196Z,17.60
2022-10-13T20:28:47.781Z,17.53
2022-10-13T20:31:16.771Z,15.97
2022-10-13T20:33:43.733Z,16.83
2022-10-13T20:36:16.082Z,13.80
2022-10-13T20:38:42.817Z,15.27
2022-10-13T20:41:24.990Z,20.30
2022-10-13T20:43:53.149Z,17.73
2022-10-13T20:46:21.542Z,14.90
2022-10-13T20:49:09.761Z,18.67
2022-10-13T20:51:35.877Z,18.03
2022-10-13T20:54:02.538Z,15.97
2022-10-13T20:56:29.216Z,15.30
2022-10-13T20:58:55.897Z,18.63
2022-10-13T21:01:23.304Z,20.40
2022-10-13T21:03:54.058Z,15.90
2022-10-13T21:06:22.356Z,21.30
2022-10-13T21:08:49.461Z,18.43
2022-10-13T21:11:17.684Z,19.90
2022-10-13T21:13:45.069Z,25.53
2022-10-13T21:16:14.776Z,19.17
2022-10-13T21:18:47.971Z,19.67
2022-10-13T21:21:17.542Z,19.83
2022-10-13T21:23:46.028Z,23.20
2022-10-13T21:26:18.971Z,23.43
2022-10-13T21:28:48.768Z,21.20
2022-10-13T21:31:16.747Z,18.53
2022-10-13T21:33:43.961Z,17.87
2022-10-13T21:36:16.416Z,19.60
2022-10-13T21:38:44.502Z,18.60
2022-10-13T21:41:13.267Z,17.50
2022-10-13T21:43:40.497Z,17.43
2022-10-13T21:46:16.542Z,20.00
2022-10-13T21:48:44.842Z,19.73
2022-10-13T21:51:11.455Z,17.00
2022-10-13T21:53:38.108Z,16.80
2022-10-13T21:56:06.987Z,16.53
2022-10-13T21:58:34.450Z,16.97
2022-10-13T22:01:02.171Z,17.07
2022-10-13T22:03:29.068Z,16.77
2022-10-13T22:05:55.867Z,15.33
2022-10-13T22:08:37.393Z,17.90
2022-10-13T22:11:12.094Z,17.80
2022-10-13T22:13:39.431Z,15.47
2022-10-13T22:16:08.118Z,17.77
2022-10-13T22:18:41.023Z,17.57
2022-10-13T22:21:11.782Z,18.30
2022-10-13T22:23:38.459Z,16.67
2022-10-13T22:26:05.130Z,18.37
2022-10-13T22:28:36.767Z,19.00
2022-10-13T22:31:09.957Z,19.87
2022-10-13T22:33:38.155Z,13.90
2022-10-13T22:36:14.355Z,14.20
2022-10-13T22:38:41.204Z,17.67
2022-10-13T22:41:08.433Z,17.03
2022-10-13T22:43:35.254Z,15.17
2022-10-13T22:46:18.603Z,18.27
2022-10-13T22:48:45.622Z,18.90
2022-10-13T22:51:16.240Z,16.70
2022-10-13T22:53:43.147Z,20.47
2022-10-13T22:56:15.099Z,20.87
2022-10-13T22:58:43.029Z,15.83
2022-10-13T23:01:15.196Z,20.77
2022-10-13T23:03:42.679Z,19.33
2022-10-13T23:06:14.287Z,16.77
2022-10-13T23:08:41.321Z,15.77
2022-10-13T23:11:08.272Z,16.73
2022-10-13T23:13:35.489Z,17.43
2022-10-13T23:16:11.269Z,16.30
2022-10-13T23:18:39.461Z,20.13
2022-10-13T23:21:13.972Z,17.07
2022-10-13T23:23:40.705Z,14.83
2022-10-13T23:26:13.516Z,15.60
2022-10-13T23:28:40.702Z,18.93
2022-10-13T23:31:14.281Z,17.07
2022-10-13T23:33:41.404Z,17.27
2022-10-13T23:36:10.553Z,16.70
2022-10-13T23:38:37.208Z,17.33
2022-10-13T23:41:09.232Z,17.97
2022-10-13T23:43:36.497Z,16.60
2022-10-13T23:46:03.975Z,19.27
2022-10-13T23:48:31.000Z,18.40
2022-10-13T23:50:57.901Z,20.27
2022-10-13T23:53:24.711Z,19.70
2022-10-13T23:55:51.334Z,14.97
2022-10-13T23:58:19.143Z,20.33
